sensor_id;sensor_type;location;lat;lon;timestamp;P1;durP1;ratioP1;P2;durP2;ratioP2
76801;SDS011;66403;50.832;10.950;2023-09-18T00:01:33;8.23;;;4.80;;
76801;SDS011;66403;50.832;10.950;2023-09-18T00:06:33;5.00;;;4.35;;
76801;SDS011;66403;50.832;10.950;2023-09-18T00:11:34;6.10;;;4.43;;
76801;SDS011;66403;50.832;10.950;2023-09-18T00:16:35;5.65;;;5.03;;
76801;SDS011;66403;50.832;10.950;2023-09-18T00:21:35;5.85;;;4.85;;
76801;SDS011;66403;50.832;10.950;2023-09-18T00:26:36;5.10;;;4.47;;
76801;SDS011;66403;50.832;10.950;2023-09-18T00:31:36;5.47;;;4.20;;
76801;SDS011;66403;50.832;10.950;2023-09-18T00:36:37;6.75;;;3.85;;
76801;SDS011;66403;50.832;10.950;2023-09-18T00:41:38;6.97;;;4.28;;
76801;SDS011;66403;50.832;10.950;2023-09-18T00:46:39;6.03;;;4.63;;
76801;SDS011;66403;50.832;10.950;2023-09-18T00:51:39;5.70;;;4.68;;
76801;SDS011;66403;50.832;10.950;2023-09-18T00:56:40;6.25;;;4.70;;
76801;SDS011;66403;50.832;10.950;2023-09-18T01:01:41;4.63;;;3.92;;
76801;SDS011;66403;50.832;10.950;2023-09-18T01:06:42;4.38;;;3.97;;
76801;SDS011;66403;50.832;10.950;2023-09-18T01:17:20;5.85;;;4.50;;
76801;SDS011;66403;50.832;10.950;2023-09-18T01:22:21;5.13;;;4.43;;
76801;SDS011;66403;50.832;10.950;2023-09-18T01:27:30;4.72;;;3.60;;
76801;SDS011;66403;50.832;10.950;2023-09-18T01:32:31;7.35;;;4.45;;
76801;SDS011;66403;50.832;10.950;2023-09-18T01:37:32;4.85;;;4.28;;
76801;SDS011;66403;50.832;10.950;2023-09-18T01:42:34;5.10;;;4.28;;
76801;SDS011;66403;50.832;10.950;2023-09-18T01:47:35;5.15;;;4.15;;
76801;SDS011;66403;50.832;10.950;2023-09-18T01:52:36;4.28;;;3.45;;
76801;SDS011;66403;50.832;10.950;2023-09-18T01:57:37;5.03;;;4.53;;
76801;SDS011;66403;50.832;10.950;2023-09-18T02:02:37;6.25;;;3.90;;
76801;SDS011;66403;50.832;10.950;2023-09-18T02:07:38;6.93;;;4.22;;
76801;SDS011;66403;50.832;10.950;2023-09-18T02:12:39;4.47;;;4.03;;
76801;SDS011;66403;50.832;10.950;2023-09-18T02:17:39;3.83;;;3.17;;
76801;SDS011;66403;50.832;10.950;2023-09-18T02:22:40;4.85;;;4.13;;
76801;SDS011;66403;50.832;10.950;2023-09-18T02:27:41;5.78;;;4.25;;
76801;SDS011;66403;50.832;10.950;2023-09-18T02:32:41;6.10;;;3.67;;
76801;SDS011;66403;50.832;10.950;2023-09-18T02:37:42;4.28;;;3.85;;
76801;SDS011;66403;50.832;10.950;2023-09-18T02:42:43;4.30;;;3.88;;
76801;SDS011;66403;50.832;10.950;2023-09-18T02:47:43;4.93;;;3.90;;
76801;SDS011;66403;50.832;10.950;2023-09-18T02:52:44;4.45;;;3.53;;
76801;SDS011;66403;50.832;10.950;2023-09-18T02:57:44;5.53;;;3.53;;
76801;SDS011;66403;50.832;10.950;2023-09-18T03:02:45;7.25;;;5.13;;
76801;SDS011;66403;50.832;10.950;2023-09-18T03:07:46;6.85;;;4.32;;
76801;SDS011;66403;50.832;10.950;2023-09-18T03:12:48;7.15;;;4.70;;
76801;SDS011;66403;50.832;10.950;2023-09-18T03:17:50;12.52;;;9.00;;
76801;SDS011;66403;50.832;10.950;2023-09-18T03:22:51;5.00;;;4.30;;
76801;SDS011;66403;50.832;10.950;2023-09-18T03:27:53;4.90;;;4.40;;
76801;SDS011;66403;50.832;10.950;2023-09-18T03:32:56;5.72;;;4.20;;
76801;SDS011;66403;50.832;10.950;2023-09-18T03:37:58;5.22;;;4.13;;
76801;SDS011;66403;50.832;10.950;2023-09-18T03:42:59;4.90;;;4.03;;
76801;SDS011;66403;50.832;10.950;2023-09-18T03:48:00;5.78;;;4.18;;
76801;SDS011;66403;50.832;10.950;2023-09-18T03:53:01;4.38;;;3.97;;
76801;SDS011;66403;50.832;10.950;2023-09-18T03:58:01;4.35;;;3.58;;
76801;SDS011;66403;50.832;10.950;2023-09-18T04:03:02;4.32;;;3.78;;
76801;SDS011;66403;50.832;10.950;2023-09-18T04:08:02;5.57;;;4.40;;
76801;SDS011;66403;50.832;10.950;2023-09-18T04:13:03;4.65;;;4.10;;
76801;SDS011;66403;50.832;10.950;2023-09-18T04:18:04;4.32;;;3.80;;
76801;SDS011;66403;50.832;10.950;2023-09-18T04:33:22;4.40;;;3.53;;
76801;SDS011;66403;50.832;10.950;2023-09-18T04:38:23;3.30;;;2.63;;
76801;SDS011;66403;50.832;10.950;2023-09-18T04:43:24;3.55;;;2.90;;
76801;SDS011;66403;50.832;10.950;2023-09-18T04:48:25;4.28;;;3.13;;
76801;SDS011;66403;50.832;10.950;2023-09-18T04:53:29;3.60;;;2.92;;
76801;SDS011;66403;50.832;10.950;2023-09-18T04:58:31;2.50;;;2.30;;
76801;SDS011;66403;50.832;10.950;2023-09-18T05:03:35;4.60;;;2.47;;
76801;SDS011;66403;50.832;10.950;2023-09-18T05:08:36;4.13;;;2.53;;
76801;SDS011;66403;50.832;10.950;2023-09-18T05:13:36;3.22;;;2.17;;
76801;SDS011;66403;50.832;10.950;2023-09-18T05:18:37;2.97;;;2.53;;
76801;SDS011;66403;50.832;10.950;2023-09-18T05:23:38;3.92;;;2.53;;
76801;SDS011;66403;50.832;10.950;2023-09-18T05:28:38;3.55;;;2.83;;
76801;SDS011;66403;50.832;10.950;2023-09-18T05:33:39;4.47;;;3.23;;
76801;SDS011;66403;50.832;10.950;2023-09-18T05:38:39;5.10;;;2.90;;
76801;SDS011;66403;50.832;10.950;2023-09-18T05:43:39;3.97;;;3.30;;
76801;SDS011;66403;50.832;10.950;2023-09-18T05:48:40;5.60;;;4.00;;
76801;SDS011;66403;50.832;10.950;2023-09-18T05:53:40;4.13;;;3.13;;
76801;SDS011;66403;50.832;10.950;2023-09-18T05:58:41;6.53;;;3.22;;
76801;SDS011;66403;50.832;10.950;2023-09-18T06:03:41;4.90;;;3.92;;
76801;SDS011;66403;50.832;10.950;2023-09-18T06:08:42;4.10;;;3.30;;
76801;SDS011;66403;50.832;10.950;2023-09-18T06:13:42;4.70;;;3.63;;
76801;SDS011;66403;50.832;10.950;2023-09-18T06:18:42;3.60;;;3.23;;
76801;SDS011;66403;50.832;10.950;2023-09-18T06:23:44;4.72;;;2.92;;
76801;SDS011;66403;50.832;10.950;2023-09-18T06:28:45;8.30;;;3.13;;
76801;SDS011;66403;50.832;10.950;2023-09-18T06:33:46;4.28;;;3.55;;
76801;SDS011;66403;50.832;10.950;2023-09-18T06:38:47;3.40;;;3.10;;
76801;SDS011;66403;50.832;10.950;2023-09-18T06:43:47;3.70;;;2.72;;
76801;SDS011;66403;50.832;10.950;2023-09-18T06:48:47;5.07;;;3.38;;
76801;SDS011;66403;50.832;10.950;2023-09-18T06:53:51;3.67;;;3.05;;
76801;SDS011;66403;50.832;10.950;2023-09-18T06:58:51;6.70;;;3.00;;
76801;SDS011;66403;50.832;10.950;2023-09-18T07:03:52;3.17;;;2.88;;
76801;SDS011;66403;50.832;10.950;2023-09-18T07:08:52;5.10;;;3.20;;
76801;SDS011;66403;50.832;10.950;2023-09-18T07:13:53;4.15;;;3.20;;
76801;SDS011;66403;50.832;10.950;2023-09-18T07:18:53;4.47;;;2.92;;
76801;SDS011;66403;50.832;10.950;2023-09-18T07:23:54;6.53;;;3.90;;
76801;SDS011;66403;50.832;10.950;2023-09-18T07:28:54;5.33;;;2.30;;
76801;SDS011;66403;50.832;10.950;2023-09-18T07:33:55;12.05;;;6.40;;
76801;SDS011;66403;50.832;10.950;2023-09-18T07:38:56;3.63;;;2.80;;
76801;SDS011;66403;50.832;10.950;2023-09-18T07:43:57;5.15;;;3.55;;
76801;SDS011;66403;50.832;10.950;2023-09-18T07:48:59;4.57;;;2.85;;
76801;SDS011;66403;50.832;10.950;2023-09-18T07:53:59;6.15;;;3.45;;
76801;SDS011;66403;50.832;10.950;2023-09-18T07:59:00;4.20;;;2.70;;
76801;SDS011;66403;50.832;10.950;2023-09-18T08:04:01;4.90;;;2.50;;
76801;SDS011;66403;50.832;10.950;2023-09-18T08:09:02;7.95;;;3.00;;
76801;SDS011;66403;50.832;10.950;2023-09-18T08:14:04;4.38;;;2.50;;
76801;SDS011;66403;50.832;10.950;2023-09-18T08:19:05;4.65;;;3.05;;
76801;SDS011;66403;50.832;10.950;2023-09-18T08:24:06;4.28;;;2.60;;
76801;SDS011;66403;50.832;10.950;2023-09-18T08:29:07;4.83;;;2.90;;
76801;SDS011;66403;50.832;10.950;2023-09-18T08:34:07;12.38;;;3.47;;
76801;SDS011;66403;50.832;10.950;2023-09-18T08:39:08;7.45;;;3.80;;
76801;SDS011;66403;50.832;10.950;2023-09-18T08:44:09;5.43;;;2.75;;
76801;SDS011;66403;50.832;10.950;2023-09-18T08:49:09;4.65;;;3.13;;
76801;SDS011;66403;50.832;10.950;2023-09-18T08:54:11;3.75;;;3.30;;
76801;SDS011;66403;50.832;10.950;2023-09-18T08:59:12;5.28;;;2.40;;
76801;SDS011;66403;50.832;10.950;2023-09-18T09:04:13;7.97;;;2.75;;
76801;SDS011;66403;50.832;10.950;2023-09-18T09:09:14;4.90;;;2.90;;
76801;SDS011;66403;50.832;10.950;2023-09-18T09:14:15;4.70;;;2.47;;
76801;SDS011;66403;50.832;10.950;2023-09-18T09:19:31;8.43;;;2.78;;
76801;SDS011;66403;50.832;10.950;2023-09-18T09:24:42;6.10;;;3.85;;
76801;SDS011;66403;50.832;10.950;2023-09-18T09:29:43;5.35;;;2.33;;
76801;SDS011;66403;50.832;10.950;2023-09-18T09:34:57;3.80;;;2.30;;
76801;SDS011;66403;50.832;10.950;2023-09-18T09:40:03;6.43;;;1.98;;
76801;SDS011;66403;50.832;10.950;2023-09-18T09:45:13;11.98;;;2.83;;
76801;SDS011;66403;50.832;10.950;2023-09-18T09:50:17;4.65;;;2.45;;
76801;SDS011;66403;50.832;10.950;2023-09-18T09:55:19;2.67;;;2.08;;
76801;SDS011;66403;50.832;10.950;2023-09-18T10:00:36;5.68;;;2.08;;
76801;SDS011;66403;50.832;10.950;2023-09-18T10:05:46;4.55;;;1.65;;
76801;SDS011;66403;50.832;10.950;2023-09-18T10:10:48;3.95;;;2.55;;
76801;SDS011;66403;50.832;10.950;2023-09-18T10:15:50;4.97;;;2.47;;
76801;SDS011;66403;50.832;10.950;2023-09-18T10:20:51;4.30;;;2.67;;
76801;SDS011;66403;50.832;10.950;2023-09-18T10:25:58;3.70;;;2.10;;
76801;SDS011;66403;50.832;10.950;2023-09-18T10:31:00;5.25;;;2.38;;
76801;SDS011;66403;50.832;10.950;2023-09-18T10:36:01;2.60;;;2.08;;
76801;SDS011;66403;50.832;10.950;2023-09-18T10:41:03;3.38;;;1.90;;
76801;SDS011;66403;50.832;10.950;2023-09-18T10:46:05;4.45;;;1.95;;
76801;SDS011;66403;50.832;10.950;2023-09-18T10:51:05;4.18;;;2.08;;
76801;SDS011;66403;50.832;10.950;2023-09-18T10:56:06;2.78;;;2.20;;
76801;SDS011;66403;50.832;10.950;2023-09-18T11:01:06;3.03;;;2.43;;
76801;SDS011;66403;50.832;10.950;2023-09-18T11:06:08;3.70;;;2.30;;
76801;SDS011;66403;50.832;10.950;2023-09-18T11:11:11;5.15;;;2.03;;
76801;SDS011;66403;50.832;10.950;2023-09-18T11:21:30;3.30;;;1.83;;
76801;SDS011;66403;50.832;10.950;2023-09-18T11:26:35;4.72;;;2.10;;
76801;SDS011;66403;50.832;10.950;2023-09-18T11:31:46;2.50;;;1.98;;
76801;SDS011;66403;50.832;10.950;2023-09-18T11:36:50;3.13;;;1.83;;
76801;SDS011;66403;50.832;10.950;2023-09-18T11:41:57;4.45;;;2.50;;
76801;SDS011;66403;50.832;10.950;2023-09-18T11:47:10;3.80;;;1.80;;
76801;SDS011;66403;50.832;10.950;2023-09-18T11:52:18;4.03;;;2.35;;
76801;SDS011;66403;50.832;10.950;2023-09-18T11:57:18;4.00;;;1.77;;
76801;SDS011;66403;50.832;10.950;2023-09-18T12:02:25;3.75;;;2.03;;
76801;SDS011;66403;50.832;10.950;2023-09-18T12:07:28;4.90;;;2.30;;
76801;SDS011;66403;50.832;10.950;2023-09-18T12:12:31;2.53;;;2.15;;
76801;SDS011;66403;50.832;10.950;2023-09-18T12:17:32;4.30;;;2.83;;
76801;SDS011;66403;50.832;10.950;2023-09-18T12:22:32;4.23;;;1.80;;
76801;SDS011;66403;50.832;10.950;2023-09-18T12:27:35;2.65;;;1.67;;
76801;SDS011;66403;50.832;10.950;2023-09-18T12:32:36;2.88;;;1.90;;
76801;SDS011;66403;50.832;10.950;2023-09-18T12:37:41;2.05;;;1.75;;
76801;SDS011;66403;50.832;10.950;2023-09-18T12:42:41;3.08;;;1.30;;
76801;SDS011;66403;50.832;10.950;2023-09-18T12:47:42;3.37;;;1.60;;
76801;SDS011;66403;50.832;10.950;2023-09-18T12:52:43;1.70;;;1.27;;
76801;SDS011;66403;50.832;10.950;2023-09-18T12:57:45;2.08;;;1.77;;
76801;SDS011;66403;50.832;10.950;2023-09-18T13:02:46;3.15;;;2.50;;
76801;SDS011;66403;50.832;10.950;2023-09-18T13:07:46;3.60;;;1.90;;
76801;SDS011;66403;50.832;10.950;2023-09-18T13:12:48;4.07;;;1.35;;
76801;SDS011;66403;50.832;10.950;2023-09-18T13:17:54;3.85;;;1.40;;
76801;SDS011;66403;50.832;10.950;2023-09-18T13:22:56;3.35;;;1.38;;
76801;SDS011;66403;50.832;10.950;2023-09-18T13:27:58;3.58;;;1.63;;
76801;SDS011;66403;50.832;10.950;2023-09-18T13:33:02;3.42;;;1.50;;
76801;SDS011;66403;50.832;10.950;2023-09-18T13:38:04;3.47;;;1.58;;
76801;SDS011;66403;50.832;10.950;2023-09-18T13:43:08;1.80;;;1.15;;
76801;SDS011;66403;50.832;10.950;2023-09-18T13:48:09;2.17;;;1.58;;
76801;SDS011;66403;50.832;10.950;2023-09-18T13:53:10;3.28;;;1.95;;
76801;SDS011;66403;50.832;10.950;2023-09-18T13:58:10;3.23;;;1.63;;
76801;SDS011;66403;50.832;10.950;2023-09-18T14:03:11;1.60;;;1.50;;
76801;SDS011;66403;50.832;10.950;2023-09-18T14:08:15;2.00;;;1.50;;
76801;SDS011;66403;50.832;10.950;2023-09-18T14:13:17;3.80;;;1.73;;
76801;SDS011;66403;50.832;10.950;2023-09-18T14:18:18;3.90;;;1.80;;
76801;SDS011;66403;50.832;10.950;2023-09-18T14:23:18;2.67;;;0.85;;
76801;SDS011;66403;50.832;10.950;2023-09-18T14:28:19;2.53;;;1.03;;
76801;SDS011;66403;50.832;10.950;2023-09-18T14:33:20;3.72;;;2.05;;
76801;SDS011;66403;50.832;10.950;2023-09-18T14:38:20;1.48;;;1.15;;
76801;SDS011;66403;50.832;10.950;2023-09-18T14:43:21;3.03;;;1.37;;
76801;SDS011;66403;50.832;10.950;2023-09-18T14:48:21;1.35;;;1.13;;
76801;SDS011;66403;50.832;10.950;2023-09-18T14:53:22;4.07;;;3.03;;
76801;SDS011;66403;50.832;10.950;2023-09-18T14:58:23;1.73;;;1.58;;
76801;SDS011;66403;50.832;10.950;2023-09-18T15:03:23;3.30;;;1.25;;
76801;SDS011;66403;50.832;10.950;2023-09-18T15:08:24;2.42;;;0.90;;
76801;SDS011;66403;50.832;10.950;2023-09-18T15:13:25;2.40;;;1.00;;
76801;SDS011;66403;50.832;10.950;2023-09-18T15:18:25;3.47;;;1.00;;
76801;SDS011;66403;50.832;10.950;2023-09-18T15:23:26;3.35;;;0.90;;
76801;SDS011;66403;50.832;10.950;2023-09-18T15:28:26;10.73;;;1.43;;
76801;SDS011;66403;50.832;10.950;2023-09-18T15:33:29;1.30;;;1.10;;
76801;SDS011;66403;50.832;10.950;2023-09-18T15:38:29;4.25;;;2.80;;
76801;SDS011;66403;50.832;10.950;2023-09-18T15:43:30;7.60;;;1.33;;
76801;SDS011;66403;50.832;10.950;2023-09-18T15:48:31;1.58;;;1.15;;
76801;SDS011;66403;50.832;10.950;2023-09-18T15:53:32;4.43;;;1.95;;
76801;SDS011;66403;50.832;10.950;2023-09-18T15:58:32;3.70;;;1.30;;
76801;SDS011;66403;50.832;10.950;2023-09-18T16:03:34;4.53;;;2.85;;
76801;SDS011;66403;50.832;10.950;2023-09-18T16:08:36;1.80;;;1.40;;
76801;SDS011;66403;50.832;10.950;2023-09-18T16:13:37;4.28;;;1.83;;
76801;SDS011;66403;50.832;10.950;2023-09-18T16:18:38;7.53;;;3.70;;
76801;SDS011;66403;50.832;10.950;2023-09-18T16:23:39;4.32;;;2.30;;
76801;SDS011;66403;50.832;10.950;2023-09-18T16:28:39;4.93;;;1.27;;
76801;SDS011;66403;50.832;10.950;2023-09-18T16:33:40;5.05;;;1.27;;
76801;SDS011;66403;50.832;10.950;2023-09-18T16:38:40;2.22;;;1.10;;
76801;SDS011;66403;50.832;10.950;2023-09-18T16:43:41;2.13;;;1.33;;
76801;SDS011;66403;50.832;10.950;2023-09-18T16:48:42;2.17;;;1.33;;
76801;SDS011;66403;50.832;10.950;2023-09-18T16:53:43;2.00;;;1.17;;
76801;SDS011;66403;50.832;10.950;2023-09-18T16:58:43;3.03;;;1.65;;
76801;SDS011;66403;50.832;10.950;2023-09-18T17:03:46;2.50;;;1.20;;
76801;SDS011;66403;50.832;10.950;2023-09-18T17:08:46;2.60;;;1.27;;
76801;SDS011;66403;50.832;10.950;2023-09-18T17:13:48;1.70;;;1.13;;
76801;SDS011;66403;50.832;10.950;2023-09-18T17:18:49;4.28;;;1.27;;
76801;SDS011;66403;50.832;10.950;2023-09-18T17:23:55;2.28;;;1.20;;
76801;SDS011;66403;50.832;10.950;2023-09-18T17:28:56;2.92;;;1.10;;
76801;SDS011;66403;50.832;10.950;2023-09-18T17:33:56;2.03;;;1.10;;
76801;SDS011;66403;50.832;10.950;2023-09-18T17:38:57;3.57;;;2.13;;
76801;SDS011;66403;50.832;10.950;2023-09-18T17:43:57;1.98;;;1.27;;
76801;SDS011;66403;50.832;10.950;2023-09-18T17:48:58;3.67;;;1.50;;
76801;SDS011;66403;50.832;10.950;2023-09-18T17:53:58;1.90;;;1.30;;
76801;SDS011;66403;50.832;10.950;2023-09-18T17:58:59;1.87;;;1.27;;
76801;SDS011;66403;50.832;10.950;2023-09-18T18:03:59;3.27;;;1.53;;
76801;SDS011;66403;50.832;10.950;2023-09-18T18:09:00;12.38;;;6.53;;
76801;SDS011;66403;50.832;10.950;2023-09-18T18:14:04;2.17;;;1.40;;
76801;SDS011;66403;50.832;10.950;2023-09-18T18:19:04;3.30;;;1.70;;
76801;SDS011;66403;50.832;10.950;2023-09-18T18:24:05;3.15;;;1.67;;
76801;SDS011;66403;50.832;10.950;2023-09-18T18:29:06;4.63;;;1.58;;
76801;SDS011;66403;50.832;10.950;2023-09-18T18:34:07;2.40;;;1.30;;
76801;SDS011;66403;50.832;10.950;2023-09-18T18:39:08;3.67;;;1.42;;
76801;SDS011;66403;50.832;10.950;2023-09-18T18:44:09;3.10;;;1.48;;
76801;SDS011;66403;50.832;10.950;2023-09-18T18:49:09;2.92;;;1.23;;
76801;SDS011;66403;50.832;10.950;2023-09-18T18:54:10;2.60;;;1.95;;
76801;SDS011;66403;50.832;10.950;2023-09-18T18:59:11;8.40;;;5.70;;
76801;SDS011;66403;50.832;10.950;2023-09-18T19:04:11;8.57;;;3.00;;
76801;SDS011;66403;50.832;10.950;2023-09-18T19:09:12;2.47;;;1.27;;
76801;SDS011;66403;50.832;10.950;2023-09-18T19:14:12;1.33;;;1.23;;
76801;SDS011;66403;50.832;10.950;2023-09-18T19:19:13;3.40;;;1.73;;
76801;SDS011;66403;50.832;10.950;2023-09-18T19:24:14;2.30;;;1.60;;
76801;SDS011;66403;50.832;10.950;2023-09-18T19:29:14;3.40;;;1.10;;
76801;SDS011;66403;50.832;10.950;2023-09-18T19:34:16;2.22;;;1.67;;
76801;SDS011;66403;50.832;10.950;2023-09-18T19:39:16;2.35;;;1.30;;
76801;SDS011;66403;50.832;10.950;2023-09-18T19:44:17;1.75;;;1.27;;
76801;SDS011;66403;50.832;10.950;2023-09-18T19:49:17;3.50;;;1.67;;
76801;SDS011;66403;50.832;10.950;2023-09-18T19:54:18;1.47;;;1.37;;
76801;SDS011;66403;50.832;10.950;2023-09-18T19:59:23;4.53;;;2.28;;
76801;SDS011;66403;50.832;10.950;2023-09-18T20:04:23;0.82;;;0.60;;
76801;SDS011;66403;50.832;10.950;2023-09-18T20:09:24;1.65;;;0.93;;
76801;SDS011;66403;50.832;10.950;2023-09-18T20:14:27;1.85;;;0.82;;
76801;SDS011;66403;50.832;10.950;2023-09-18T20:19:27;1.70;;;1.00;;
76801;SDS011;66403;50.832;10.950;2023-09-18T20:24:28;2.75;;;1.20;;
76801;SDS011;66403;50.832;10.950;2023-09-18T20:29:30;1.65;;;0.70;;
76801;SDS011;66403;50.832;10.950;2023-09-18T20:34:31;1.20;;;0.77;;
76801;SDS011;66403;50.832;10.950;2023-09-18T20:39:32;0.77;;;0.75;;
76801;SDS011;66403;50.832;10.950;2023-09-18T20:44:32;1.38;;;1.02;;
76801;SDS011;66403;50.832;10.950;2023-09-18T20:49:33;3.15;;;1.20;;
76801;SDS011;66403;50.832;10.950;2023-09-18T20:54:33;1.98;;;1.27;;
76801;SDS011;66403;50.832;10.950;2023-09-18T20:59:34;2.47;;;0.90;;
76801;SDS011;66403;50.832;10.950;2023-09-18T21:04:34;2.17;;;1.07;;
76801;SDS011;66403;50.832;10.950;2023-09-18T21:09:36;2.63;;;1.55;;
76801;SDS011;66403;50.832;10.950;2023-09-18T21:14:39;4.18;;;0.98;;
76801;SDS011;66403;50.832;10.950;2023-09-18T21:19:40;1.30;;;1.00;;
76801;SDS011;66403;50.832;10.950;2023-09-18T21:24:40;4.10;;;1.25;;
76801;SDS011;66403;50.832;10.950;2023-09-18T21:29:44;1.20;;;1.10;;
76801;SDS011;66403;50.832;10.950;2023-09-18T21:34:45;2.08;;;1.23;;
76801;SDS011;66403;50.832;10.950;2023-09-18T21:39:45;1.33;;;1.20;;
76801;SDS011;66403;50.832;10.950;2023-09-18T21:44:46;4.43;;;1.52;;
76801;SDS011;66403;50.832;10.950;2023-09-18T21:49:46;2.95;;;1.20;;
76801;SDS011;66403;50.832;10.950;2023-09-18T21:54:47;2.70;;;1.10;;
76801;SDS011;66403;50.832;10.950;2023-09-18T21:59:47;2.17;;;1.23;;
76801;SDS011;66403;50.832;10.950;2023-09-18T22:04:47;1.63;;;1.37;;
76801;SDS011;66403;50.832;10.950;2023-09-18T22:09:48;1.17;;;1.07;;
76801;SDS011;66403;50.832;10.950;2023-09-18T22:14:52;1.33;;;0.90;;
76801;SDS011;66403;50.832;10.950;2023-09-18T22:19:53;2.47;;;1.25;;
76801;SDS011;66403;50.832;10.950;2023-09-18T22:24:53;6.10;;;2.58;;
76801;SDS011;66403;50.832;10.950;2023-09-18T22:29:54;1.45;;;1.10;;
76801;SDS011;66403;50.832;10.950;2023-09-18T22:34:54;1.97;;;0.90;;
76801;SDS011;66403;50.832;10.950;2023-09-18T22:56:23;0.75;;;0.75;;
76801;SDS011;66403;50.832;10.950;2023-09-18T23:01:26;1.35;;;1.00;;
76801;SDS011;66403;50.832;10.950;2023-09-18T23:06:28;1.48;;;1.05;;
76801;SDS011;66403;50.832;10.950;2023-09-18T23:11:28;1.10;;;0.77;;
76801;SDS011;66403;50.832;10.950;2023-09-18T23:16:29;1.25;;;0.85;;
76801;SDS011;66403;50.832;10.950;2023-09-18T23:21:29;1.15;;;0.88;;
76801;SDS011;66403;50.832;10.950;2023-09-18T23:26:31;2.33;;;0.98;;
76801;SDS011;66403;50.832;10.950;2023-09-18T23:31:32;1.80;;;0.90;;
76801;SDS011;66403;50.832;10.950;2023-09-18T23:36:34;1.15;;;0.85;;
76801;SDS011;66403;50.832;10.950;2023-09-18T23:41:35;1.90;;;1.08;;
76801;SDS011;66403;50.832;10.950;2023-09-18T23:46:35;1.00;;;0.88;;
76801;SDS011;66403;50.832;10.950;2023-09-18T23:51:36;3.00;;;0.97;;
76801;SDS011;66403;50.832;10.950;2023-09-18T23:56:36;1.80;;;1.00;;
